sensor_id;sensor_type;location;lat;lon;timestamp;P1;durP1;ratioP1;P2;durP2;ratioP2
10677;SDS011;5387;48.722;9.110;2023-09-07T00:01:57;4.28;;;3.22;;
10677;SDS011;5387;48.722;9.110;2023-09-07T00:04:25;4.85;;;2.88;;
10677;SDS011;5387;48.722;9.110;2023-09-07T00:06:52;4.25;;;3.05;;
10677;SDS011;5387;48.722;9.110;2023-09-07T00:09:18;2.85;;;2.60;;
10677;SDS011;5387;48.722;9.110;2023-09-07T00:11:47;2.83;;;2.58;;
10677;SDS011;5387;48.722;9.110;2023-09-07T00:14:14;3.28;;;2.70;;
10677;SDS011;5387;48.722;9.110;2023-09-07T00:16:40;2.67;;;2.42;;
10677;SDS011;5387;48.722;9.110;2023-09-07T00:19:07;3.83;;;3.20;;
10677;SDS011;5387;48.722;9.110;2023-09-07T00:21:35;3.22;;;2.80;;
10677;SDS011;5387;48.722;9.110;2023-09-07T00:24:02;3.05;;;2.80;;
10677;SDS011;5387;48.722;9.110;2023-09-07T00:26:30;3.00;;;2.75;;
10677;SDS011;5387;48.722;9.110;2023-09-07T00:28:57;2.50;;;2.30;;
10677;SDS011;5387;48.722;9.110;2023-09-07T00:31:24;3.58;;;3.03;;
10677;SDS011;5387;48.722;9.110;2023-09-07T00:33:50;6.45;;;2.75;;
10677;SDS011;5387;48.722;9.110;2023-09-07T00:36:17;3.55;;;2.78;;
10677;SDS011;5387;48.722;9.110;2023-09-07T00:38:45;3.47;;;3.10;;
10677;SDS011;5387;48.722;9.110;2023-09-07T00:41:12;3.65;;;3.05;;
10677;SDS011;5387;48.722;9.110;2023-09-07T00:43:40;4.22;;;2.92;;
10677;SDS011;5387;48.722;9.110;2023-09-07T00:46:07;4.15;;;2.92;;
10677;SDS011;5387;48.722;9.110;2023-09-07T00:48:34;3.00;;;2.70;;
10677;SDS011;5387;48.722;9.110;2023-09-07T00:51:01;2.70;;;2.50;;
10677;SDS011;5387;48.722;9.110;2023-09-07T00:53:28;3.58;;;2.72;;
10677;SDS011;5387;48.722;9.110;2023-09-07T00:55:56;4.00;;;2.47;;
10677;SDS011;5387;48.722;9.110;2023-09-07T00:58:23;3.65;;;2.88;;
10677;SDS011;5387;48.722;9.110;2023-09-07T01:00:50;4.30;;;2.80;;
10677;SDS011;5387;48.722;9.110;2023-09-07T01:03:17;4.57;;;2.97;;
10677;SDS011;5387;48.722;9.110;2023-09-07T01:05:46;3.22;;;2.92;;
10677;SDS011;5387;48.722;9.110;2023-09-07T01:08:22;3.67;;;2.47;;
10677;SDS011;5387;48.722;9.110;2023-09-07T01:10:50;2.63;;;2.40;;
10677;SDS011;5387;48.722;9.110;2023-09-07T01:13:19;2.70;;;2.40;;
10677;SDS011;5387;48.722;9.110;2023-09-07T01:15:46;3.53;;;2.50;;
10677;SDS011;5387;48.722;9.110;2023-09-07T01:18:13;2.90;;;2.40;;
10677;SDS011;5387;48.722;9.110;2023-09-07T01:20:41;3.22;;;2.90;;
10677;SDS011;5387;48.722;9.110;2023-09-07T01:23:11;2.72;;;2.53;;
10677;SDS011;5387;48.722;9.110;2023-09-07T01:25:39;2.83;;;2.55;;
10677;SDS011;5387;48.722;9.110;2023-09-07T01:28:07;2.83;;;2.63;;
10677;SDS011;5387;48.722;9.110;2023-09-07T01:30:34;3.65;;;2.38;;
10677;SDS011;5387;48.722;9.110;2023-09-07T01:33:02;2.85;;;2.65;;
10677;SDS011;5387;48.722;9.110;2023-09-07T01:35:29;3.15;;;2.85;;
10677;SDS011;5387;48.722;9.110;2023-09-07T01:37:57;5.03;;;2.55;;
10677;SDS011;5387;48.722;9.110;2023-09-07T01:40:25;3.08;;;2.40;;
10677;SDS011;5387;48.722;9.110;2023-09-07T01:42:52;3.55;;;2.42;;
10677;SDS011;5387;48.722;9.110;2023-09-07T01:45:19;2.45;;;2.25;;
10677;SDS011;5387;48.722;9.110;2023-09-07T01:47:47;3.05;;;2.75;;
10677;SDS011;5387;48.722;9.110;2023-09-07T01:50:13;4.28;;;2.78;;
10677;SDS011;5387;48.722;9.110;2023-09-07T01:52:40;3.33;;;2.88;;
10677;SDS011;5387;48.722;9.110;2023-09-07T01:55:07;3.95;;;2.80;;
10677;SDS011;5387;48.722;9.110;2023-09-07T01:57:35;3.42;;;2.80;;
10677;SDS011;5387;48.722;9.110;2023-09-07T02:00:03;2.60;;;2.40;;
10677;SDS011;5387;48.722;9.110;2023-09-07T02:02:30;4.38;;;2.72;;
10677;SDS011;5387;48.722;9.110;2023-09-07T02:04:57;3.38;;;2.50;;
10677;SDS011;5387;48.722;9.110;2023-09-07T02:07:24;2.53;;;2.33;;
10677;SDS011;5387;48.722;9.110;2023-09-07T02:09:51;3.88;;;2.60;;
10677;SDS011;5387;48.722;9.110;2023-09-07T02:12:18;5.63;;;3.05;;
10677;SDS011;5387;48.722;9.110;2023-09-07T02:14:46;4.18;;;2.85;;
10677;SDS011;5387;48.722;9.110;2023-09-07T02:17:13;6.45;;;2.50;;
10677;SDS011;5387;48.722;9.110;2023-09-07T02:19:43;4.32;;;2.95;;
10677;SDS011;5387;48.722;9.110;2023-09-07T02:22:09;2.53;;;2.28;;
10677;SDS011;5387;48.722;9.110;2023-09-07T02:24:36;3.83;;;2.60;;
10677;SDS011;5387;48.722;9.110;2023-09-07T02:27:03;3.70;;;2.55;;
10677;SDS011;5387;48.722;9.110;2023-09-07T02:29:30;3.17;;;2.70;;
10677;SDS011;5387;48.722;9.110;2023-09-07T02:31:58;2.47;;;2.28;;
10677;SDS011;5387;48.722;9.110;2023-09-07T02:34:25;3.25;;;2.95;;
10677;SDS011;5387;48.722;9.110;2023-09-07T02:36:52;3.22;;;2.80;;
10677;SDS011;5387;48.722;9.110;2023-09-07T02:39:18;2.72;;;2.53;;
10677;SDS011;5387;48.722;9.110;2023-09-07T02:41:45;7.13;;;2.85;;
10677;SDS011;5387;48.722;9.110;2023-09-07T02:44:12;3.00;;;2.80;;
10677;SDS011;5387;48.722;9.110;2023-09-07T02:46:39;3.72;;;2.72;;
10677;SDS011;5387;48.722;9.110;2023-09-07T02:49:07;2.95;;;2.60;;
10677;SDS011;5387;48.722;9.110;2023-09-07T02:51:33;3.58;;;3.00;;
10677;SDS011;5387;48.722;9.110;2023-09-07T02:54:01;2.92;;;2.65;;
10677;SDS011;5387;48.722;9.110;2023-09-07T02:56:28;6.00;;;2.78;;
10677;SDS011;5387;48.722;9.110;2023-09-07T02:58:55;4.47;;;3.05;;
10677;SDS011;5387;48.722;9.110;2023-09-07T03:01:22;4.82;;;3.10;;
10677;SDS011;5387;48.722;9.110;2023-09-07T03:03:49;4.10;;;2.88;;
10677;SDS011;5387;48.722;9.110;2023-09-07T03:06:17;2.80;;;2.60;;
10677;SDS011;5387;48.722;9.110;2023-09-07T03:08:45;3.42;;;2.85;;
10677;SDS011;5387;48.722;9.110;2023-09-07T03:11:12;2.50;;;2.30;;
10677;SDS011;5387;48.722;9.110;2023-09-07T03:13:38;3.53;;;3.17;;
10677;SDS011;5387;48.722;9.110;2023-09-07T03:16:05;3.25;;;2.90;;
10677;SDS011;5387;48.722;9.110;2023-09-07T03:18:32;3.00;;;2.65;;
10677;SDS011;5387;48.722;9.110;2023-09-07T03:21:00;3.20;;;2.58;;
10677;SDS011;5387;48.722;9.110;2023-09-07T03:23:29;3.83;;;3.00;;
10677;SDS011;5387;48.722;9.110;2023-09-07T03:25:57;4.13;;;3.20;;
10677;SDS011;5387;48.722;9.110;2023-09-07T03:28:24;3.33;;;3.03;;
10677;SDS011;5387;48.722;9.110;2023-09-07T03:30:51;3.45;;;2.50;;
10677;SDS011;5387;48.722;9.110;2023-09-07T03:33:19;3.42;;;3.08;;
10677;SDS011;5387;48.722;9.110;2023-09-07T03:35:46;5.28;;;3.00;;
10677;SDS011;5387;48.722;9.110;2023-09-07T03:38:12;5.65;;;2.75;;
10677;SDS011;5387;48.722;9.110;2023-09-07T03:40:41;2.88;;;2.67;;
10677;SDS011;5387;48.722;9.110;2023-09-07T03:43:07;3.40;;;3.08;;
10677;SDS011;5387;48.722;9.110;2023-09-07T03:45:35;3.90;;;3.03;;
10677;SDS011;5387;48.722;9.110;2023-09-07T03:48:01;3.50;;;2.60;;
10677;SDS011;5387;48.722;9.110;2023-09-07T03:50:29;3.97;;;2.80;;
10677;SDS011;5387;48.722;9.110;2023-09-07T03:52:56;3.47;;;3.17;;
10677;SDS011;5387;48.722;9.110;2023-09-07T03:55:23;3.53;;;3.08;;
10677;SDS011;5387;48.722;9.110;2023-09-07T03:57:51;5.03;;;3.00;;
10677;SDS011;5387;48.722;9.110;2023-09-07T04:00:18;4.22;;;2.90;;
10677;SDS011;5387;48.722;9.110;2023-09-07T04:02:45;6.68;;;3.13;;
10677;SDS011;5387;48.722;9.110;2023-09-07T04:05:12;3.38;;;3.08;;
10677;SDS011;5387;48.722;9.110;2023-09-07T04:07:38;3.22;;;2.83;;
10677;SDS011;5387;48.722;9.110;2023-09-07T04:10:05;2.85;;;2.60;;
10677;SDS011;5387;48.722;9.110;2023-09-07T04:12:32;4.32;;;3.03;;
10677;SDS011;5387;48.722;9.110;2023-09-07T04:15:01;3.92;;;2.85;;
10677;SDS011;5387;48.722;9.110;2023-09-07T04:17:28;4.10;;;3.00;;
10677;SDS011;5387;48.722;9.110;2023-09-07T04:19:55;4.97;;;2.80;;
10677;SDS011;5387;48.722;9.110;2023-09-07T04:22:22;4.03;;;3.22;;
10677;SDS011;5387;48.722;9.110;2023-09-07T04:24:49;7.00;;;3.45;;
10677;SDS011;5387;48.722;9.110;2023-09-07T04:27:15;3.72;;;3.10;;
10677;SDS011;5387;48.722;9.110;2023-09-07T04:29:42;3.13;;;2.80;;
10677;SDS011;5387;48.722;9.110;2023-09-07T04:32:10;4.68;;;3.00;;
10677;SDS011;5387;48.722;9.110;2023-09-07T04:34:37;3.42;;;2.97;;
10677;SDS011;5387;48.722;9.110;2023-09-07T04:37:04;3.50;;;3.08;;
10677;SDS011;5387;48.722;9.110;2023-09-07T04:39:30;4.10;;;3.22;;
10677;SDS011;5387;48.722;9.110;2023-09-07T04:41:58;3.10;;;2.80;;
10677;SDS011;5387;48.722;9.110;2023-09-07T04:44:25;5.43;;;2.92;;
10677;SDS011;5387;48.722;9.110;2023-09-07T04:46:54;3.63;;;3.20;;
10677;SDS011;5387;48.722;9.110;2023-09-07T04:49:22;6.00;;;2.95;;
10677;SDS011;5387;48.722;9.110;2023-09-07T04:51:49;3.40;;;3.10;;
10677;SDS011;5387;48.722;9.110;2023-09-07T04:54:18;4.85;;;2.72;;
10677;SDS011;5387;48.722;9.110;2023-09-07T04:56:45;3.75;;;2.92;;
10677;SDS011;5387;48.722;9.110;2023-09-07T04:59:12;3.47;;;3.17;;
10677;SDS011;5387;48.722;9.110;2023-09-07T05:01:39;8.73;;;3.55;;
10677;SDS011;5387;48.722;9.110;2023-09-07T05:04:09;3.95;;;3.15;;
10677;SDS011;5387;48.722;9.110;2023-09-07T05:06:38;3.83;;;3.38;;
10677;SDS011;5387;48.722;9.110;2023-09-07T05:09:08;3.83;;;3.00;;
10677;SDS011;5387;48.722;9.110;2023-09-07T05:11:35;5.97;;;3.28;;
10677;SDS011;5387;48.722;9.110;2023-09-07T05:14:02;8.07;;;3.72;;
10677;SDS011;5387;48.722;9.110;2023-09-07T05:16:29;4.07;;;3.60;;
10677;SDS011;5387;48.722;9.110;2023-09-07T05:18:55;3.90;;;3.30;;
10677;SDS011;5387;48.722;9.110;2023-09-07T05:21:22;9.80;;;3.72;;
10677;SDS011;5387;48.722;9.110;2023-09-07T05:23:50;4.65;;;3.35;;
10677;SDS011;5387;48.722;9.110;2023-09-07T05:26:20;7.10;;;3.55;;
10677;SDS011;5387;48.722;9.110;2023-09-07T05:28:49;3.90;;;3.22;;
10677;SDS011;5387;48.722;9.110;2023-09-07T05:31:21;5.72;;;3.35;;
10677;SDS011;5387;48.722;9.110;2023-09-07T05:33:48;9.05;;;3.83;;
10677;SDS011;5387;48.722;9.110;2023-09-07T05:36:16;7.45;;;4.10;;
10677;SDS011;5387;48.722;9.110;2023-09-07T05:38:43;4.15;;;3.55;;
10677;SDS011;5387;48.722;9.110;2023-09-07T05:41:11;4.40;;;3.40;;
10677;SDS011;5387;48.722;9.110;2023-09-07T05:43:38;4.75;;;3.30;;
10677;SDS011;5387;48.722;9.110;2023-09-07T05:46:05;4.40;;;4.00;;
10677;SDS011;5387;48.722;9.110;2023-09-07T05:48:32;4.15;;;3.72;;
10677;SDS011;5387;48.722;9.110;2023-09-07T05:50:58;5.05;;;3.92;;
10677;SDS011;5387;48.722;9.110;2023-09-07T05:53:25;4.22;;;3.53;;
10677;SDS011;5387;48.722;9.110;2023-09-07T05:55:52;5.68;;;4.22;;
10677;SDS011;5387;48.722;9.110;2023-09-07T05:58:20;5.15;;;4.03;;
10677;SDS011;5387;48.722;9.110;2023-09-07T06:00:47;4.88;;;3.78;;
10677;SDS011;5387;48.722;9.110;2023-09-07T06:03:14;6.07;;;4.22;;
10677;SDS011;5387;48.722;9.110;2023-09-07T06:05:41;4.35;;;3.50;;
10677;SDS011;5387;48.722;9.110;2023-09-07T06:08:09;7.88;;;3.72;;
10677;SDS011;5387;48.722;9.110;2023-09-07T06:10:36;5.05;;;4.03;;
10677;SDS011;5387;48.722;9.110;2023-09-07T06:13:03;5.38;;;4.38;;
10677;SDS011;5387;48.722;9.110;2023-09-07T06:15:31;5.28;;;4.30;;
10677;SDS011;5387;48.722;9.110;2023-09-07T06:17:58;6.72;;;5.07;;
10677;SDS011;5387;48.722;9.110;2023-09-07T06:20:25;7.32;;;5.13;;
10677;SDS011;5387;48.722;9.110;2023-09-07T06:22:52;9.10;;;5.63;;
10677;SDS011;5387;48.722;9.110;2023-09-07T06:25:18;8.90;;;5.88;;
10677;SDS011;5387;48.722;9.110;2023-09-07T06:27:47;7.40;;;5.32;;
10677;SDS011;5387;48.722;9.110;2023-09-07T06:30:14;13.60;;;5.80;;
10677;SDS011;5387;48.722;9.110;2023-09-07T06:32:42;9.73;;;6.25;;
10677;SDS011;5387;48.722;9.110;2023-09-07T06:35:08;6.65;;;5.70;;
10677;SDS011;5387;48.722;9.110;2023-09-07T06:37:36;7.50;;;5.90;;
10677;SDS011;5387;48.722;9.110;2023-09-07T06:40:06;10.60;;;5.68;;
10677;SDS011;5387;48.722;9.110;2023-09-07T06:42:34;10.27;;;5.75;;
10677;SDS011;5387;48.722;9.110;2023-09-07T06:45:01;12.30;;;5.95;;
10677;SDS011;5387;48.722;9.110;2023-09-07T06:47:28;10.55;;;5.85;;
10677;SDS011;5387;48.722;9.110;2023-09-07T06:49:56;12.63;;;5.90;;
10677;SDS011;5387;48.722;9.110;2023-09-07T06:52:23;6.82;;;5.35;;
10677;SDS011;5387;48.722;9.110;2023-09-07T06:54:51;6.95;;;5.70;;
10677;SDS011;5387;48.722;9.110;2023-09-07T06:57:18;8.80;;;5.72;;
10677;SDS011;5387;48.722;9.110;2023-09-07T06:59:45;6.55;;;5.28;;
10677;SDS011;5387;48.722;9.110;2023-09-07T07:02:12;7.47;;;5.45;;
10677;SDS011;5387;48.722;9.110;2023-09-07T07:04:39;7.93;;;5.25;;
10677;SDS011;5387;48.722;9.110;2023-09-07T07:07:07;7.18;;;5.00;;
10677;SDS011;5387;48.722;9.110;2023-09-07T07:09:34;8.50;;;5.05;;
10677;SDS011;5387;48.722;9.110;2023-09-07T07:12:01;8.63;;;5.13;;
10677;SDS011;5387;48.722;9.110;2023-09-07T07:14:29;7.07;;;4.88;;
10677;SDS011;5387;48.722;9.110;2023-09-07T07:16:56;6.88;;;4.85;;
10677;SDS011;5387;48.722;9.110;2023-09-07T07:19:23;5.57;;;4.47;;
10677;SDS011;5387;48.722;9.110;2023-09-07T07:21:50;7.05;;;4.85;;
10677;SDS011;5387;48.722;9.110;2023-09-07T07:24:18;7.00;;;4.68;;
10677;SDS011;5387;48.722;9.110;2023-09-07T07:26:45;13.88;;;5.47;;
10677;SDS011;5387;48.722;9.110;2023-09-07T07:29:12;6.85;;;4.43;;
10677;SDS011;5387;48.722;9.110;2023-09-07T07:31:39;7.18;;;5.28;;
10677;SDS011;5387;48.722;9.110;2023-09-07T07:34:06;7.45;;;5.22;;
10677;SDS011;5387;48.722;9.110;2023-09-07T07:36:33;8.73;;;5.45;;
10677;SDS011;5387;48.722;9.110;2023-09-07T07:39:00;7.95;;;5.75;;
10677;SDS011;5387;48.722;9.110;2023-09-07T07:41:29;11.40;;;5.95;;
10677;SDS011;5387;48.722;9.110;2023-09-07T07:43:56;7.63;;;5.43;;
10677;SDS011;5387;48.722;9.110;2023-09-07T07:46:23;13.15;;;5.82;;
10677;SDS011;5387;48.722;9.110;2023-09-07T07:48:50;6.72;;;5.18;;
10677;SDS011;5387;48.722;9.110;2023-09-07T07:51:17;6.07;;;5.45;;
10677;SDS011;5387;48.722;9.110;2023-09-07T07:53:44;7.20;;;5.75;;
10677;SDS011;5387;48.722;9.110;2023-09-07T07:56:14;7.50;;;5.90;;
10677;SDS011;5387;48.722;9.110;2023-09-07T07:58:42;8.60;;;5.65;;
10677;SDS011;5387;48.722;9.110;2023-09-07T08:01:13;7.97;;;5.00;;
10677;SDS011;5387;48.722;9.110;2023-09-07T08:03:41;7.25;;;5.82;;
10677;SDS011;5387;48.722;9.110;2023-09-07T08:06:08;8.20;;;5.35;;
10677;SDS011;5387;48.722;9.110;2023-09-07T08:08:35;5.90;;;4.93;;
10677;SDS011;5387;48.722;9.110;2023-09-07T08:11:02;5.35;;;4.85;;
10677;SDS011;5387;48.722;9.110;2023-09-07T08:13:30;6.00;;;5.18;;
10677;SDS011;5387;48.722;9.110;2023-09-07T08:15:59;6.03;;;5.03;;
10677;SDS011;5387;48.722;9.110;2023-09-07T08:18:26;6.38;;;4.97;;
10677;SDS011;5387;48.722;9.110;2023-09-07T08:20:53;5.53;;;4.68;;
10677;SDS011;5387;48.722;9.110;2023-09-07T08:23:20;4.85;;;4.35;;
10677;SDS011;5387;48.722;9.110;2023-09-07T08:25:47;7.90;;;4.53;;
10677;SDS011;5387;48.722;9.110;2023-09-07T08:28:14;5.47;;;4.85;;
10677;SDS011;5387;48.722;9.110;2023-09-07T08:30:43;5.55;;;4.95;;
10677;SDS011;5387;48.722;9.110;2023-09-07T08:33:11;7.97;;;4.90;;
10677;SDS011;5387;48.722;9.110;2023-09-07T08:35:38;12.52;;;5.20;;
10677;SDS011;5387;48.722;9.110;2023-09-07T08:38:09;7.18;;;4.45;;
10677;SDS011;5387;48.722;9.110;2023-09-07T08:40:36;9.05;;;4.82;;
10677;SDS011;5387;48.722;9.110;2023-09-07T08:43:05;5.80;;;4.32;;
10677;SDS011;5387;48.722;9.110;2023-09-07T08:45:37;6.43;;;4.85;;
10677;SDS011;5387;48.722;9.110;2023-09-07T08:48:08;9.73;;;4.53;;
10677;SDS011;5387;48.722;9.110;2023-09-07T08:50:37;8.30;;;4.80;;
10677;SDS011;5387;48.722;9.110;2023-09-07T08:53:07;7.57;;;5.18;;
10677;SDS011;5387;48.722;9.110;2023-09-07T08:55:34;7.03;;;4.72;;
10677;SDS011;5387;48.722;9.110;2023-09-07T08:58:01;5.07;;;4.30;;
10677;SDS011;5387;48.722;9.110;2023-09-07T09:00:29;7.28;;;4.30;;
10677;SDS011;5387;48.722;9.110;2023-09-07T09:02:55;5.82;;;4.55;;
10677;SDS011;5387;48.722;9.110;2023-09-07T09:05:23;5.90;;;4.00;;
10677;SDS011;5387;48.722;9.110;2023-09-07T09:08:01;6.22;;;4.72;;
10677;SDS011;5387;48.722;9.110;2023-09-07T09:10:29;5.82;;;4.38;;
10677;SDS011;5387;48.722;9.110;2023-09-07T09:12:56;6.80;;;5.75;;
10677;SDS011;5387;48.722;9.110;2023-09-07T09:15:24;6.65;;;4.70;;
10677;SDS011;5387;48.722;9.110;2023-09-07T09:17:51;6.85;;;5.07;;
10677;SDS011;5387;48.722;9.110;2023-09-07T09:20:22;12.38;;;4.90;;
10677;SDS011;5387;48.722;9.110;2023-09-07T09:22:52;6.43;;;5.45;;
10677;SDS011;5387;48.722;9.110;2023-09-07T09:25:21;5.72;;;4.47;;
10677;SDS011;5387;48.722;9.110;2023-09-07T09:27:48;8.00;;;4.90;;
10677;SDS011;5387;48.722;9.110;2023-09-07T09:30:15;6.28;;;5.15;;
10677;SDS011;5387;48.722;9.110;2023-09-07T09:32:42;6.55;;;4.68;;
10677;SDS011;5387;48.722;9.110;2023-09-07T09:35:09;9.07;;;4.32;;
10677;SDS011;5387;48.722;9.110;2023-09-07T09:37:43;7.82;;;4.18;;
10677;SDS011;5387;48.722;9.110;2023-09-07T09:40:11;5.07;;;4.57;;
10677;SDS011;5387;48.722;9.110;2023-09-07T09:42:41;6.32;;;4.97;;
10677;SDS011;5387;48.722;9.110;2023-09-07T09:45:09;6.18;;;5.10;;
10677;SDS011;5387;48.722;9.110;2023-09-07T09:47:38;5.75;;;4.95;;
10677;SDS011;5387;48.722;9.110;2023-09-07T09:50:06;8.30;;;4.85;;
10677;SDS011;5387;48.722;9.110;2023-09-07T09:52:36;4.93;;;4.43;;
10677;SDS011;5387;48.722;9.110;2023-09-07T09:55:05;4.57;;;4.18;;
10677;SDS011;5387;48.722;9.110;2023-09-07T09:57:33;5.78;;;4.47;;
10677;SDS011;5387;48.722;9.110;2023-09-07T10:00:03;8.15;;;5.18;;
10677;SDS011;5387;48.722;9.110;2023-09-07T10:02:51;5.63;;;5.03;;
10677;SDS011;5387;48.722;9.110;2023-09-07T10:05:28;7.72;;;4.07;;
10677;SDS011;5387;48.722;9.110;2023-09-07T10:07:59;6.18;;;4.43;;
10677;SDS011;5387;48.722;9.110;2023-09-07T10:10:31;5.60;;;4.68;;
10677;SDS011;5387;48.722;9.110;2023-09-07T10:13:01;5.35;;;4.13;;
10677;SDS011;5387;48.722;9.110;2023-09-07T10:15:30;5.47;;;4.45;;
10677;SDS011;5387;48.722;9.110;2023-09-07T10:18:08;8.20;;;5.13;;
10677;SDS011;5387;48.722;9.110;2023-09-07T10:20:53;5.15;;;4.65;;
10677;SDS011;5387;48.722;9.110;2023-09-07T10:23:23;7.20;;;4.00;;
10677;SDS011;5387;48.722;9.110;2023-09-07T10:26:03;10.82;;;4.32;;
10677;SDS011;5387;48.722;9.110;2023-09-07T10:28:30;8.73;;;4.05;;
10677;SDS011;5387;48.722;9.110;2023-09-07T10:31:05;6.93;;;4.65;;
10677;SDS011;5387;48.722;9.110;2023-09-07T10:33:33;4.85;;;4.45;;
10677;SDS011;5387;48.722;9.110;2023-09-07T10:36:01;5.05;;;4.03;;
10677;SDS011;5387;48.722;9.110;2023-09-07T10:38:30;5.40;;;4.35;;
10677;SDS011;5387;48.722;9.110;2023-09-07T10:40:58;4.75;;;4.15;;
10677;SDS011;5387;48.722;9.110;2023-09-07T10:43:26;8.25;;;4.43;;
10677;SDS011;5387;48.722;9.110;2023-09-07T10:45:54;10.95;;;4.25;;
10677;SDS011;5387;48.722;9.110;2023-09-07T10:48:22;6.25;;;4.00;;
10677;SDS011;5387;48.722;9.110;2023-09-07T10:50:50;6.38;;;4.57;;
10677;SDS011;5387;48.722;9.110;2023-09-07T10:53:24;6.45;;;4.50;;
10677;SDS011;5387;48.722;9.110;2023-09-07T10:55:52;5.97;;;4.18;;
10677;SDS011;5387;48.722;9.110;2023-09-07T10:58:26;6.63;;;4.53;;
10677;SDS011;5387;48.722;9.110;2023-09-07T11:00:54;4.97;;;4.03;;
10677;SDS011;5387;48.722;9.110;2023-09-07T11:03:22;5.93;;;4.93;;
10677;SDS011;5387;48.722;9.110;2023-09-07T11:05:53;6.22;;;4.53;;
10677;SDS011;5387;48.722;9.110;2023-09-07T11:08:21;6.60;;;4.03;;
10677;SDS011;5387;48.722;9.110;2023-09-07T11:10:49;4.22;;;3.83;;
10677;SDS011;5387;48.722;9.110;2023-09-07T11:13:17;10.85;;;4.55;;
10677;SDS011;5387;48.722;9.110;2023-09-07T11:15:44;8.15;;;4.05;;
10677;SDS011;5387;48.722;9.110;2023-09-07T11:18:11;6.35;;;3.92;;
10677;SDS011;5387;48.722;9.110;2023-09-07T11:20:39;4.60;;;3.85;;
10677;SDS011;5387;48.722;9.110;2023-09-07T11:23:07;4.97;;;4.47;;
10677;SDS011;5387;48.722;9.110;2023-09-07T11:25:35;3.92;;;3.60;;
10677;SDS011;5387;48.722;9.110;2023-09-07T11:28:02;6.72;;;4.82;;
10677;SDS011;5387;48.722;9.110;2023-09-07T11:30:29;6.30;;;4.25;;
10677;SDS011;5387;48.722;9.110;2023-09-07T11:33:00;5.45;;;4.22;;
10677;SDS011;5387;48.722;9.110;2023-09-07T11:35:28;4.63;;;4.13;;
10677;SDS011;5387;48.722;9.110;2023-09-07T11:37:56;4.88;;;4.38;;
10677;SDS011;5387;48.722;9.110;2023-09-07T11:40:25;7.50;;;4.00;;
10677;SDS011;5387;48.722;9.110;2023-09-07T11:42:51;4.32;;;3.92;;
10677;SDS011;5387;48.722;9.110;2023-09-07T11:45:18;5.35;;;4.05;;
10677;SDS011;5387;48.722;9.110;2023-09-07T11:47:45;5.68;;;4.05;;
10677;SDS011;5387;48.722;9.110;2023-09-07T11:50:12;3.83;;;3.47;;
10677;SDS011;5387;48.722;9.110;2023-09-07T11:52:39;4.05;;;3.65;;
10677;SDS011;5387;48.722;9.110;2023-09-07T11:55:07;4.78;;;3.83;;
10677;SDS011;5387;48.722;9.110;2023-09-07T11:57:35;4.80;;;4.30;;
10677;SDS011;5387;48.722;9.110;2023-09-07T12:00:02;6.03;;;4.30;;
10677;SDS011;5387;48.722;9.110;2023-09-07T12:02:36;5.03;;;3.65;;
10677;SDS011;5387;48.722;9.110;2023-09-07T12:05:03;4.15;;;3.80;;
10677;SDS011;5387;48.722;9.110;2023-09-07T12:07:32;3.72;;;3.42;;
10677;SDS011;5387;48.722;9.110;2023-09-07T12:09:59;5.72;;;4.30;;
10677;SDS011;5387;48.722;9.110;2023-09-07T12:12:27;4.97;;;3.75;;
10677;SDS011;5387;48.722;9.110;2023-09-07T12:14:54;4.22;;;3.55;;
10677;SDS011;5387;48.722;9.110;2023-09-07T12:17:21;6.75;;;3.75;;
10677;SDS011;5387;48.722;9.110;2023-09-07T12:19:49;4.50;;;4.00;;
10677;SDS011;5387;48.722;9.110;2023-09-07T12:22:16;5.47;;;4.00;;
10677;SDS011;5387;48.722;9.110;2023-09-07T12:24:43;6.05;;;4.10;;
10677;SDS011;5387;48.722;9.110;2023-09-07T12:27:10;4.30;;;3.88;;
10677;SDS011;5387;48.722;9.110;2023-09-07T12:29:39;4.03;;;3.72;;
10677;SDS011;5387;48.722;9.110;2023-09-07T12:32:05;9.95;;;4.35;;
10677;SDS011;5387;48.722;9.110;2023-09-07T12:34:32;4.93;;;4.05;;
10677;SDS011;5387;48.722;9.110;2023-09-07T12:36:59;5.97;;;4.13;;
10677;SDS011;5387;48.722;9.110;2023-09-07T12:39:26;7.90;;;4.40;;
10677;SDS011;5387;48.722;9.110;2023-09-07T12:41:53;5.95;;;4.30;;
10677;SDS011;5387;48.722;9.110;2023-09-07T12:44:19;7.47;;;3.72;;
10677;SDS011;5387;48.722;9.110;2023-09-07T12:46:48;4.75;;;4.30;;
10677;SDS011;5387;48.722;9.110;2023-09-07T12:49:14;5.18;;;4.28;;
10677;SDS011;5387;48.722;9.110;2023-09-07T12:51:41;5.20;;;4.13;;
10677;SDS011;5387;48.722;9.110;2023-09-07T12:54:08;4.72;;;3.72;;
10677;SDS011;5387;48.722;9.110;2023-09-07T12:56:35;4.85;;;4.30;;
10677;SDS011;5387;48.722;9.110;2023-09-07T12:59:01;4.03;;;3.67;;
10677;SDS011;5387;48.722;9.110;2023-09-07T13:01:28;5.50;;;3.90;;
10677;SDS011;5387;48.722;9.110;2023-09-07T13:03:57;4.53;;;3.20;;
10677;SDS011;5387;48.722;9.110;2023-09-07T13:06:24;6.15;;;3.45;;
10677;SDS011;5387;48.722;9.110;2023-09-07T13:08:51;5.15;;;4.18;;
10677;SDS011;5387;48.722;9.110;2023-09-07T13:11:18;4.95;;;3.90;;
10677;SDS011;5387;48.722;9.110;2023-09-07T13:13:44;5.68;;;3.92;;
10677;SDS011;5387;48.722;9.110;2023-09-07T13:16:11;4.00;;;3.53;;
10677;SDS011;5387;48.722;9.110;2023-09-07T13:18:38;3.50;;;3.20;;
10677;SDS011;5387;48.722;9.110;2023-09-07T13:21:06;6.47;;;3.20;;
10677;SDS011;5387;48.722;9.110;2023-09-07T13:23:34;12.15;;;4.00;;
10677;SDS011;5387;48.722;9.110;2023-09-07T13:26:00;8.40;;;4.10;;
10677;SDS011;5387;48.722;9.110;2023-09-07T13:28:27;4.90;;;3.50;;
10677;SDS011;5387;48.722;9.110;2023-09-07T13:30:54;6.10;;;3.80;;
10677;SDS011;5387;48.722;9.110;2023-09-07T13:33:21;4.30;;;3.90;;
10677;SDS011;5387;48.722;9.110;2023-09-07T13:35:47;8.25;;;3.70;;
10677;SDS011;5387;48.722;9.110;2023-09-07T13:38:15;5.93;;;3.55;;
10677;SDS011;5387;48.722;9.110;2023-09-07T13:40:42;3.17;;;2.90;;
10677;SDS011;5387;48.722;9.110;2023-09-07T13:43:09;7.03;;;3.80;;
10677;SDS011;5387;48.722;9.110;2023-09-07T13:45:36;3.50;;;3.20;;
10677;SDS011;5387;48.722;9.110;2023-09-07T13:48:03;3.60;;;3.30;;
10677;SDS011;5387;48.722;9.110;2023-09-07T13:50:31;3.67;;;3.35;;
10677;SDS011;5387;48.722;9.110;2023-09-07T13:52:58;3.75;;;3.45;;
10677;SDS011;5387;48.722;9.110;2023-09-07T13:55:26;4.88;;;3.70;;
10677;SDS011;5387;48.722;9.110;2023-09-07T13:57:53;10.75;;;3.60;;
10677;SDS011;5387;48.722;9.110;2023-09-07T14:00:20;4.35;;;3.42;;
10677;SDS011;5387;48.722;9.110;2023-09-07T14:02:46;5.05;;;3.20;;
10677;SDS011;5387;48.722;9.110;2023-09-07T14:05:13;4.35;;;3.72;;
10677;SDS011;5387;48.722;9.110;2023-09-07T14:07:40;3.47;;;3.10;;
10677;SDS011;5387;48.722;9.110;2023-09-07T14:10:07;4.80;;;3.45;;
10677;SDS011;5387;48.722;9.110;2023-09-07T14:12:35;3.35;;;3.05;;
10677;SDS011;5387;48.722;9.110;2023-09-07T14:15:02;4.57;;;3.60;;
10677;SDS011;5387;48.722;9.110;2023-09-07T14:17:29;4.63;;;3.17;;
10677;SDS011;5387;48.722;9.110;2023-09-07T14:19:56;4.40;;;3.42;;
10677;SDS011;5387;48.722;9.110;2023-09-07T14:22:23;4.32;;;3.60;;
10677;SDS011;5387;48.722;9.110;2023-09-07T14:24:49;4.70;;;3.78;;
10677;SDS011;5387;48.722;9.110;2023-09-07T14:27:16;3.63;;;3.33;;
10677;SDS011;5387;48.722;9.110;2023-09-07T14:29:44;3.63;;;3.20;;
10677;SDS011;5387;48.722;9.110;2023-09-07T14:32:11;4.45;;;3.55;;
10677;SDS011;5387;48.722;9.110;2023-09-07T14:34:38;3.80;;;3.38;;
10677;SDS011;5387;48.722;9.110;2023-09-07T14:37:05;4.60;;;3.47;;
10677;SDS011;5387;48.722;9.110;2023-09-07T14:39:31;4.28;;;3.25;;
10677;SDS011;5387;48.722;9.110;2023-09-07T14:42:00;7.80;;;3.63;;
10677;SDS011;5387;48.722;9.110;2023-09-07T14:44:27;3.83;;;3.50;;
10677;SDS011;5387;48.722;9.110;2023-09-07T14:46:55;3.50;;;3.20;;
10677;SDS011;5387;48.722;9.110;2023-09-07T14:49:22;7.13;;;3.10;;
10677;SDS011;5387;48.722;9.110;2023-09-07T14:51:48;5.70;;;3.38;;
10677;SDS011;5387;48.722;9.110;2023-09-07T14:54:15;4.03;;;3.15;;
10677;SDS011;5387;48.722;9.110;2023-09-07T14:56:43;4.10;;;3.33;;
10677;SDS011;5387;48.722;9.110;2023-09-07T14:59:09;4.55;;;3.15;;
10677;SDS011;5387;48.722;9.110;2023-09-07T15:01:36;4.20;;;2.90;;
10677;SDS011;5387;48.722;9.110;2023-09-07T15:04:04;3.92;;;2.97;;